createdAt,value
2018-11-13T00:03:26.144Z,7.90
2018-11-13T00:08:29.359Z,7.90
2018-11-13T00:13:32.628Z,7.90
2018-11-13T00:18:35.860Z,7.80
2018-11-13T00:23:39.108Z,7.80
2018-11-13T00:28:43.121Z,7.80
2018-11-13T00:33:46.382Z,7.80
2018-11-13T00:38:49.733Z,7.80
2018-11-13T00:43:53.012Z,7.80
2018-11-13T00:48:56.240Z,7.80
2018-11-13T00:53:59.492Z,7.70
2018-11-13T00:59:02.717Z,7.70
2018-11-13T01:04:06.732Z,7.70
2018-11-13T01:09:10.415Z,7.70
2018-11-13T01:14:13.651Z,7.70
2018-11-13T01:19:16.907Z,7.70
2018-11-13T01:24:20.150Z,7.70
2018-11-13T01:29:23.410Z,7.70
2018-11-13T01:34:26.684Z,7.70
2018-11-13T01:39:29.939Z,7.70
2018-11-13T01:44:33.186Z,7.60
2018-11-13T01:49:36.800Z,7.60
2018-11-13T01:54:40.040Z,7.60
2018-11-13T01:59:43.296Z,7.60
2018-11-13T02:04:46.555Z,7.60
2018-11-13T02:09:49.791Z,7.60
2018-11-13T02:14:53.456Z,7.60
2018-11-13T02:19:56.634Z,7.60
2018-11-13T02:24:59.907Z,7.60
2018-11-13T02:30:03.180Z,7.60
2018-11-13T02:35:07.241Z,7.50
2018-11-13T02:40:10.519Z,7.50
2018-11-13T02:45:15.330Z,7.50
2018-11-13T02:50:19.755Z,7.50
2018-11-13T02:55:23.069Z,7.50
2018-11-13T03:00:26.340Z,7.50
2018-11-13T03:05:29.589Z,7.50
2018-11-13T03:10:32.793Z,7.40
2018-11-13T03:15:36.040Z,7.40
2018-11-13T03:20:39.285Z,7.40
2018-11-13T03:25:43.384Z,7.40
2018-11-13T03:30:47.331Z,7.40
2018-11-13T03:35:50.486Z,7.40
2018-11-13T03:40:54.685Z,7.40
2018-11-13T03:45:58.533Z,7.40
2018-11-13T03:51:02.303Z,7.40
2018-11-13T03:56:06.146Z,7.40
2018-11-13T04:01:09.369Z,7.30
2018-11-13T04:06:12.614Z,7.40
2018-11-13T04:11:16.825Z,7.30
2018-11-13T04:16:20.061Z,7.30
2018-11-13T04:21:23.289Z,7.30
2018-11-13T04:26:26.523Z,7.30
2018-11-13T04:31:29.769Z,7.30
2018-11-13T04:36:32.997Z,7.40
2018-11-13T04:41:37.040Z,7.40
2018-11-13T04:46:40.304Z,7.30
2018-11-13T04:51:43.606Z,7.30
2018-11-13T04:56:46.758Z,7.30
2018-11-13T05:01:49.917Z,7.30
2018-11-13T05:06:53.020Z,7.30
2018-11-13T05:11:56.127Z,7.30
2018-11-13T05:16:59.900Z,7.30
2018-11-13T05:22:03.165Z,7.30
2018-11-13T05:27:06.396Z,7.30
2018-11-13T05:32:09.630Z,7.40
2018-11-13T05:37:12.876Z,7.40
2018-11-13T05:42:16.133Z,7.30
2018-11-13T05:47:19.568Z,7.40
2018-11-13T05:52:23.419Z,7.40
2018-11-13T05:57:26.674Z,7.40
2018-11-13T06:02:30.925Z,7.30
2018-11-13T06:07:34.176Z,7.30
2018-11-13T06:12:37.379Z,7.40
2018-11-13T06:17:40.625Z,7.40
2018-11-13T06:22:43.966Z,7.30
2018-11-13T06:27:48.123Z,7.30
2018-11-13T06:32:51.564Z,7.30
2018-11-13T06:37:54.812Z,7.30
2018-11-13T06:42:58.050Z,7.30
2018-11-13T06:48:01.307Z,7.30
2018-11-13T06:53:04.612Z,7.30
2018-11-13T06:58:07.855Z,7.30
2018-11-13T07:03:11.111Z,7.30
2018-11-13T07:08:14.943Z,7.30
2018-11-13T07:13:19.112Z,7.30
2018-11-13T07:18:23.084Z,7.30
2018-11-13T07:23:26.271Z,7.30
2018-11-13T07:28:29.520Z,7.40
2018-11-13T07:33:32.752Z,7.40
2018-11-13T07:38:36.548Z,7.40
2018-11-13T07:43:39.799Z,7.40
2018-11-13T07:48:43.040Z,7.40
2018-11-13T07:53:47.475Z,7.40
2018-11-13T07:58:50.714Z,7.40
2018-11-13T08:03:53.983Z,7.50
2018-11-13T08:08:57.225Z,7.40
2018-11-13T08:14:00.463Z,7.50
2018-11-13T08:19:03.705Z,7.50
2018-11-13T08:24:07.036Z,7.50
2018-11-13T08:29:10.325Z,7.60
2018-11-13T08:34:13.541Z,7.60
2018-11-13T08:39:16.764Z,7.60
2018-11-13T08:44:20.847Z,7.70
2018-11-13T08:49:24.000Z,7.70
2018-11-13T08:54:27.260Z,7.70
2018-11-13T08:59:30.565Z,7.80
2018-11-13T09:04:33.729Z,7.80
2018-11-13T09:09:37.001Z,7.80
2018-11-13T09:14:40.262Z,7.80
2018-11-13T09:19:44.239Z,7.90
2018-11-13T09:24:47.436Z,7.90
2018-11-13T09:29:50.802Z,7.90
2018-11-13T09:34:53.899Z,7.90
2018-11-13T09:39:57.161Z,8.00
2018-11-13T09:45:00.421Z,8.00
2018-11-13T09:50:03.898Z,8.00
2018-11-13T09:55:08.968Z,8.10
2018-11-13T10:00:17.491Z,8.10
2018-11-13T10:05:21.153Z,8.20
2018-11-13T10:10:24.921Z,8.20
2018-11-13T10:15:29.380Z,8.20
2018-11-13T10:20:32.576Z,8.30
2018-11-13T10:25:35.779Z,8.40
2018-11-13T10:30:38.981Z,8.40
2018-11-13T10:35:45.651Z,8.50
2018-11-13T10:40:49.046Z,8.50
2018-11-13T10:45:52.724Z,8.60
2018-11-13T10:50:55.941Z,8.60
2018-11-13T10:55:59.129Z,8.70
2018-11-13T11:01:07.756Z,8.70
2018-11-13T11:06:11.012Z,8.70
2018-11-13T11:11:14.251Z,8.70
2018-11-13T11:16:17.552Z,8.70
2018-11-13T11:21:20.787Z,8.80
2018-11-13T11:26:24.062Z,8.80
2018-11-13T11:31:27.349Z,8.80
2018-11-13T11:36:30.628Z,8.80
2018-11-13T11:41:33.993Z,8.90
2018-11-13T11:46:38.278Z,8.90
2018-11-13T11:51:41.530Z,8.90
2018-11-13T11:56:44.768Z,8.90
2018-11-13T12:01:48.136Z,8.90
2018-11-13T12:06:51.377Z,8.90
2018-11-13T12:11:54.628Z,8.90
2018-11-13T12:16:58.863Z,8.90
2018-11-13T12:22:02.114Z,8.90
2018-11-13T12:27:05.892Z,8.90
2018-11-13T12:32:09.891Z,8.90
2018-11-13T12:37:13.798Z,8.90
2018-11-13T12:42:17.068Z,8.90
2018-11-13T12:47:20.322Z,8.90
2018-11-13T12:52:24.273Z,8.90
2018-11-13T12:57:27.480Z,8.90
2018-11-13T13:02:30.709Z,8.90
2018-11-13T13:07:33.890Z,8.90
2018-11-13T13:12:36.963Z,8.90
2018-11-13T13:17:40.405Z,8.90
2018-11-13T13:22:44.258Z,8.90
2018-11-13T13:27:47.388Z,9.00
2018-11-13T13:32:50.826Z,9.00
2018-11-13T13:37:54.116Z,9.00
2018-11-13T13:42:58.038Z,9.00
2018-11-13T13:48:02.030Z,9.00
2018-11-13T13:53:06.408Z,9.00
2018-11-13T13:58:10.024Z,9.00
2018-11-13T14:03:13.784Z,9.00
2018-11-13T14:08:17.580Z,9.00
2018-11-13T14:13:20.821Z,9.10
2018-11-13T14:18:24.081Z,9.00
2018-11-13T14:23:28.230Z,9.10
2018-11-13T14:28:31.473Z,9.10
2018-11-13T14:33:35.403Z,9.10
2018-11-13T14:38:38.510Z,9.10
2018-11-13T14:43:41.761Z,9.10
2018-11-13T14:48:45.951Z,9.10
2018-11-13T14:53:49.198Z,9.10
2018-11-13T14:58:52.440Z,9.20
2018-11-13T15:03:55.692Z,9.10
2018-11-13T15:08:59.777Z,9.10
2018-11-13T15:14:03.096Z,9.20
2018-11-13T15:19:06.350Z,9.20
2018-11-13T15:24:09.620Z,9.20
2018-11-13T15:29:12.862Z,9.20
2018-11-13T15:34:16.113Z,9.20
2018-11-13T15:39:19.391Z,9.20
2018-11-13T15:44:23.546Z,9.10
2018-11-13T15:49:26.920Z,9.10
2018-11-13T15:54:30.168Z,9.10
2018-11-13T15:59:37.821Z,9.10
2018-11-13T16:04:41.078Z,9.00
2018-11-13T16:09:44.879Z,9.00
2018-11-13T16:14:48.133Z,9.00
2018-11-13T16:19:51.545Z,8.90
2018-11-13T16:24:54.813Z,8.90
2018-11-13T16:29:58.099Z,8.90
2018-11-13T16:35:01.305Z,8.90
2018-11-13T16:40:05.798Z,8.80
2018-11-13T16:45:10.932Z,8.70
2018-11-13T16:50:21.938Z,8.70
2018-11-13T16:55:30.565Z,8.70
2018-11-13T17:00:33.851Z,8.70
2018-11-13T17:05:37.154Z,8.60
2018-11-13T17:10:41.484Z,8.60
2018-11-13T17:15:44.743Z,8.60
2018-11-13T17:20:47.976Z,8.60
2018-11-13T17:25:51.327Z,8.50
2018-11-13T17:30:54.504Z,8.50
2018-11-13T17:35:57.786Z,8.50
2018-11-13T17:41:01.049Z,8.50
2018-11-13T17:46:04.323Z,8.40
2018-11-13T17:51:07.571Z,8.40
2018-11-13T17:56:10.795Z,8.40
2018-11-13T18:01:14.046Z,8.40
2018-11-13T18:06:17.300Z,8.30
2018-11-13T18:11:20.574Z,8.30
2018-11-13T18:16:23.807Z,8.30
2018-11-13T18:21:27.124Z,8.20
2018-11-13T18:26:31.273Z,8.20
2018-11-13T18:31:35.429Z,8.20
2018-11-13T18:36:38.689Z,8.10
2018-11-13T18:41:41.967Z,8.10
2018-11-13T18:46:45.265Z,8.00
2018-11-13T18:51:48.527Z,8.00
2018-11-13T18:56:51.770Z,7.90
2018-11-13T19:01:55.150Z,7.80
2018-11-13T19:06:58.456Z,7.80
2018-11-13T19:12:01.750Z,7.70
2018-11-13T19:17:05.894Z,7.70
2018-11-13T19:22:09.126Z,7.70
2018-11-13T19:27:12.396Z,7.60
2018-11-13T19:32:15.662Z,7.50
2018-11-13T19:37:19.354Z,7.50
2018-11-13T19:42:22.967Z,7.50
2018-11-13T19:47:26.204Z,7.40
2018-11-13T19:52:30.025Z,7.30
2018-11-13T19:57:33.336Z,7.40
2018-11-13T20:02:36.977Z,7.30
2018-11-13T20:07:40.240Z,7.30
2018-11-13T20:12:43.936Z,7.30
2018-11-13T20:17:47.212Z,7.30
2018-11-13T20:22:51.233Z,7.30
2018-11-13T20:27:54.508Z,7.30
2018-11-13T20:32:57.814Z,7.30
2018-11-13T20:38:01.442Z,7.30
2018-11-13T20:43:06.254Z,7.30
2018-11-13T20:48:10.044Z,7.30
2018-11-13T20:53:13.302Z,7.30
2018-11-13T20:58:16.572Z,7.30
2018-11-13T21:03:19.820Z,7.30
2018-11-13T21:08:24.034Z,7.20
2018-11-13T21:13:27.320Z,7.20
2018-11-13T21:18:30.582Z,7.10
2018-11-13T21:23:33.954Z,7.10
2018-11-13T21:28:37.235Z,7.10
2018-11-13T21:33:40.437Z,7.00
2018-11-13T21:38:43.687Z,7.00
2018-11-13T21:43:46.950Z,7.00
2018-11-13T21:48:50.878Z,6.90
2018-11-13T21:53:54.751Z,6.90
2018-11-13T21:58:57.996Z,6.90
2018-11-13T22:04:01.239Z,6.80
2018-11-13T22:09:06.580Z,6.80
2018-11-13T22:14:09.836Z,6.70
2018-11-13T22:19:13.079Z,6.70
2018-11-13T22:24:16.365Z,6.70
2018-11-13T22:34:23.367Z,6.70
2018-11-13T22:39:26.632Z,6.60
2018-11-13T22:44:29.896Z,6.70
2018-11-13T22:49:33.138Z,6.70
2018-11-13T22:54:36.372Z,6.70
2018-11-13T22:59:39.577Z,6.70
2018-11-13T23:04:43.883Z,6.70
2018-11-13T23:09:47.664Z,6.70
2018-11-13T23:14:52.153Z,6.80
2018-11-13T23:19:55.298Z,6.80
2018-11-13T23:24:58.609Z,6.80
2018-11-13T23:30:01.839Z,6.80
2018-11-13T23:35:07.573Z,6.80
2018-11-13T23:40:16.027Z,6.90
2018-11-13T23:45:23.140Z,6.90
2018-11-13T23:50:27.396Z,6.90
2018-11-13T23:55:30.672Z,6.90
